Penn Yan, NY

3:21 AM EDT on August 29, 2014 (GMT -0400)
Dansville Municipal | Change Station
CLOSE
Current Station
Airport
Location: Dansville,
Elevation: 659 ft
Nearby Weather Stations

Elev 659 ft 42.57 °N, 77.71 °W | Updated 27 minutes ago

Clear
Clear
49 °F
Feels Like 49 °F
N
5
Wind Variable Wind from SE

Today
High -- | Low -- °F
--% Chance of Precip.
Yesterday
High -- | Low -- °F
Precip. -- in
6:29 AM 7:47 PM
Waxing Crescent, 12% visible
Pressure 30.21 in
Visibility 10.0 miles
Clouds Clear
Dew Point 47 °F
Humidity 93%
Rainfall 0.00 in
Snow Depth Not available.
UV 0 out of 12
Pollen 9.40 out of 12
Ozone Good
PM2.5 Good
Flu Activity Not available.
METAR KDSV 290654Z AUTO 13004KT 10SM CLR 09/08 A3018 RMK AO2 SLP229 T00940083

More Conditions Fewer Conditions

Pressure 30.21 in
Visibility 10.0 miles
Clouds Clear
Dew Point 47 °F
Humidity 93%
Rainfall 0.00 in
Snow Depth Not available.
UV 0 out of 12
Pollen 9.40 out of 12
Ozone Good
PM2.5 Good
Flu Activity Not available.
METAR KDSV 290654Z AUTO 13004KT 10SM CLR 09/08 A3018 RMK AO2 SLP229 T00940083

More Conditions Fewer Conditions

10-Day Weather Forecast

Almanac

Astronomy

Aug. 29, 2014 Rise Set
Actual Time 6:29 AM EDT 7:47 PM EDT
Civil Twilight 6:00 AM EDT 8:16 PM EDT
Nautical Twilight 5:25 AM EDT 8:51 PM EDT
Astronomical Twilight 4:48 AM EDT 9:28 PM EDT
Moon 10:23 AM EDT 9:37 PM EDT
Length of Visible Light 14h 16m
Length of Day
13h 17m
Tomorrow will be 2m 46s shorter.
Waxing Crescent, 12% of the Moon is Illuminated
Today
Waxing Crescent
Sep 2
First Quarter
Sep 8
Full
Sep 15
Last Quarter
Sep 24
New

Today's Extremes

State Highs State Lows

Community

WunderPhotos

Upload Photos

1,748,197 photos uploaded!

Nearby

Air Quality

  Air Quality AQ Index Pollutant
Yesterday Good
OZONE
Yesterday Good
PM2.5
Current Good
OZONE
Current Good
PM2.5
Friday Good
OZONE
Friday Good
PM2.5

Snow Depth

Station Depth Elevation
No new snow has been reported.

Earthquake Activity

City Distance Mag. Time & Date
No recent earthquake activity has been reported nearby.
Minimum magnitude displayed is 2.5.

Coastal Water Temperatures

Place Temperature
No Stations Reporting

Nearby Weather Stations